sensor_id;sensor_type;location;lat;lon;timestamp;P1;durP1;ratioP1;P2;durP2;ratioP2
51612;SDS011;37694;51.748;14.326;2023-06-22T00:00:46;0.38;;;0.38;;
51612;SDS011;37694;51.748;14.326;2023-06-22T00:03:12;0.60;;;0.60;;
51612;SDS011;37694;51.748;14.326;2023-06-22T00:05:37;0.50;;;0.50;;
51612;SDS011;37694;51.748;14.326;2023-06-22T00:08:03;0.82;;;0.60;;
51612;SDS011;37694;51.748;14.326;2023-06-22T00:10:32;0.70;;;0.70;;
51612;SDS011;37694;51.748;14.326;2023-06-22T00:12:58;0.50;;;0.50;;
51612;SDS011;37694;51.748;14.326;2023-06-22T00:15:24;0.70;;;0.70;;
51612;SDS011;37694;51.748;14.326;2023-06-22T00:17:49;0.60;;;0.60;;
51612;SDS011;37694;51.748;14.326;2023-06-22T00:20:16;0.50;;;0.50;;
51612;SDS011;37694;51.748;14.326;2023-06-22T00:22:43;0.50;;;0.50;;
51612;SDS011;37694;51.748;14.326;2023-06-22T00:25:09;0.50;;;0.50;;
51612;SDS011;37694;51.748;14.326;2023-06-22T00:27:35;0.57;;;0.57;;
51612;SDS011;37694;51.748;14.326;2023-06-22T00:30:01;0.60;;;0.60;;
51612;SDS011;37694;51.748;14.326;2023-06-22T00:32:28;0.50;;;0.50;;
51612;SDS011;37694;51.748;14.326;2023-06-22T00:34:53;0.65;;;0.65;;
51612;SDS011;37694;51.748;14.326;2023-06-22T00:37:19;0.70;;;0.70;;
51612;SDS011;37694;51.748;14.326;2023-06-22T00:39:47;1.02;;;0.50;;
51612;SDS011;37694;51.748;14.326;2023-06-22T00:42:13;0.77;;;0.70;;
51612;SDS011;37694;51.748;14.326;2023-06-22T00:44:39;0.60;;;0.60;;
51612;SDS011;37694;51.748;14.326;2023-06-22T00:47:05;0.63;;;0.63;;
51612;SDS011;37694;51.748;14.326;2023-06-22T00:49:32;0.55;;;0.55;;
51612;SDS011;37694;51.748;14.326;2023-06-22T00:51:58;0.60;;;0.60;;
51612;SDS011;37694;51.748;14.326;2023-06-22T00:54:24;0.70;;;0.70;;
51612;SDS011;37694;51.748;14.326;2023-06-22T00:56:53;0.70;;;0.70;;
51612;SDS011;37694;51.748;14.326;2023-06-22T00:59:21;0.63;;;0.63;;
51612;SDS011;37694;51.748;14.326;2023-06-22T01:01:48;0.63;;;0.63;;
51612;SDS011;37694;51.748;14.326;2023-06-22T01:04:13;0.60;;;0.60;;
51612;SDS011;37694;51.748;14.326;2023-06-22T01:06:50;4.90;;;1.02;;
51612;SDS011;37694;51.748;14.326;2023-06-22T01:09:27;0.85;;;0.85;;
51612;SDS011;37694;51.748;14.326;2023-06-22T01:12:00;0.98;;;0.98;;
51612;SDS011;37694;51.748;14.326;2023-06-22T01:14:36;0.80;;;0.80;;
51612;SDS011;37694;51.748;14.326;2023-06-22T01:17:08;0.80;;;0.80;;
51612;SDS011;37694;51.748;14.326;2023-06-22T01:19:48;0.73;;;0.73;;
51612;SDS011;37694;51.748;14.326;2023-06-22T01:22:20;0.68;;;0.68;;
51612;SDS011;37694;51.748;14.326;2023-06-22T01:29:55;0.73;;;0.73;;
51612;SDS011;37694;51.748;14.326;2023-06-22T01:32:33;0.90;;;0.90;;
51612;SDS011;37694;51.748;14.326;2023-06-22T01:35:01;1.25;;;0.80;;
51612;SDS011;37694;51.748;14.326;2023-06-22T01:37:29;0.88;;;0.88;;
51612;SDS011;37694;51.748;14.326;2023-06-22T01:39:57;1.10;;;0.60;;
51612;SDS011;37694;51.748;14.326;2023-06-22T01:42:24;0.98;;;0.93;;
51612;SDS011;37694;51.748;14.326;2023-06-22T01:44:54;0.80;;;0.80;;
51612;SDS011;37694;51.748;14.326;2023-06-22T01:47:24;1.23;;;0.90;;
51612;SDS011;37694;51.748;14.326;2023-06-22T01:49:50;1.95;;;0.60;;
51612;SDS011;37694;51.748;14.326;2023-06-22T01:52:17;0.77;;;0.70;;
51612;SDS011;37694;51.748;14.326;2023-06-22T01:54:43;0.80;;;0.80;;
51612;SDS011;37694;51.748;14.326;2023-06-22T01:57:08;1.20;;;0.70;;
51612;SDS011;37694;51.748;14.326;2023-06-22T01:59:37;0.75;;;0.75;;
51612;SDS011;37694;51.748;14.326;2023-06-22T02:02:10;1.08;;;0.80;;
51612;SDS011;37694;51.748;14.326;2023-06-22T02:04:42;0.65;;;0.65;;
51612;SDS011;37694;51.748;14.326;2023-06-22T02:07:13;3.47;;;0.93;;
51612;SDS011;37694;51.748;14.326;2023-06-22T02:09:42;0.68;;;0.68;;
51612;SDS011;37694;51.748;14.326;2023-06-22T02:12:11;3.42;;;1.02;;
51612;SDS011;37694;51.748;14.326;2023-06-22T02:14:41;2.47;;;0.80;;
51612;SDS011;37694;51.748;14.326;2023-06-22T02:17:08;0.40;;;0.40;;
51612;SDS011;37694;51.748;14.326;2023-06-22T02:19:38;0.75;;;0.70;;
51612;SDS011;37694;51.748;14.326;2023-06-22T02:22:06;1.38;;;0.80;;
51612;SDS011;37694;51.748;14.326;2023-06-22T02:24:31;4.05;;;0.63;;
51612;SDS011;37694;51.748;14.326;2023-06-22T02:26:58;0.80;;;0.80;;
51612;SDS011;37694;51.748;14.326;2023-06-22T02:29:25;0.60;;;0.60;;
51612;SDS011;37694;51.748;14.326;2023-06-22T02:31:52;16.45;;;1.55;;
51612;SDS011;37694;51.748;14.326;2023-06-22T02:34:18;0.60;;;0.60;;
51612;SDS011;37694;51.748;14.326;2023-06-22T02:36:47;2.90;;;0.80;;
51612;SDS011;37694;51.748;14.326;2023-06-22T02:39:23;0.50;;;0.50;;
51612;SDS011;37694;51.748;14.326;2023-06-22T02:41:50;0.70;;;0.70;;
51612;SDS011;37694;51.748;14.326;2023-06-22T02:44:16;0.60;;;0.60;;
51612;SDS011;37694;51.748;14.326;2023-06-22T02:46:42;0.75;;;0.75;;
51612;SDS011;37694;51.748;14.326;2023-06-22T02:49:09;0.60;;;0.60;;
51612;SDS011;37694;51.748;14.326;2023-06-22T02:51:35;0.68;;;0.68;;
51612;SDS011;37694;51.748;14.326;2023-06-22T02:54:04;0.60;;;0.60;;
51612;SDS011;37694;51.748;14.326;2023-06-22T02:56:30;0.52;;;0.52;;
51612;SDS011;37694;51.748;14.326;2023-06-22T02:58:56;0.73;;;0.73;;
51612;SDS011;37694;51.748;14.326;2023-06-22T03:01:26;0.40;;;0.40;;
51612;SDS011;37694;51.748;14.326;2023-06-22T03:03:58;0.70;;;0.70;;
51612;SDS011;37694;51.748;14.326;2023-06-22T03:06:23;0.63;;;0.63;;
51612;SDS011;37694;51.748;14.326;2023-06-22T03:08:57;0.50;;;0.50;;
51612;SDS011;37694;51.748;14.326;2023-06-22T03:11:24;0.50;;;0.50;;
51612;SDS011;37694;51.748;14.326;2023-06-22T03:13:50;0.50;;;0.50;;
51612;SDS011;37694;51.748;14.326;2023-06-22T03:16:17;0.43;;;0.43;;
51612;SDS011;37694;51.748;14.326;2023-06-22T03:18:43;0.40;;;0.40;;
51612;SDS011;37694;51.748;14.326;2023-06-22T03:21:09;0.50;;;0.50;;
51612;SDS011;37694;51.748;14.326;2023-06-22T03:23:34;4.75;;;0.60;;
51612;SDS011;37694;51.748;14.326;2023-06-22T03:26:00;0.40;;;0.40;;
51612;SDS011;37694;51.748;14.326;2023-06-22T03:28:26;0.60;;;0.60;;
51612;SDS011;37694;51.748;14.326;2023-06-22T03:30:52;0.80;;;0.80;;
51612;SDS011;37694;51.748;14.326;2023-06-22T03:33:18;1.45;;;0.63;;
51612;SDS011;37694;51.748;14.326;2023-06-22T03:35:43;0.45;;;0.45;;
51612;SDS011;37694;51.748;14.326;2023-06-22T03:38:09;0.55;;;0.55;;
51612;SDS011;37694;51.748;14.326;2023-06-22T03:40:35;0.60;;;0.60;;
51612;SDS011;37694;51.748;14.326;2023-06-22T03:43:00;2.47;;;0.60;;
51612;SDS011;37694;51.748;14.326;2023-06-22T03:45:26;0.50;;;0.50;;
51612;SDS011;37694;51.748;14.326;2023-06-22T03:47:51;1.80;;;0.50;;
51612;SDS011;37694;51.748;14.326;2023-06-22T03:50:18;0.57;;;0.57;;
51612;SDS011;37694;51.748;14.326;2023-06-22T03:52:45;0.60;;;0.60;;
51612;SDS011;37694;51.748;14.326;2023-06-22T03:55:11;0.50;;;0.50;;
51612;SDS011;37694;51.748;14.326;2023-06-22T03:57:37;0.68;;;0.68;;
51612;SDS011;37694;51.748;14.326;2023-06-22T04:00:02;0.60;;;0.60;;
51612;SDS011;37694;51.748;14.326;2023-06-22T04:02:32;0.43;;;0.43;;
51612;SDS011;37694;51.748;14.326;2023-06-22T04:04:58;0.40;;;0.40;;
51612;SDS011;37694;51.748;14.326;2023-06-22T04:07:24;0.50;;;0.50;;
51612;SDS011;37694;51.748;14.326;2023-06-22T04:09:50;0.47;;;0.47;;
51612;SDS011;37694;51.748;14.326;2023-06-22T04:12:15;0.45;;;0.45;;
51612;SDS011;37694;51.748;14.326;2023-06-22T04:14:41;0.40;;;0.40;;
51612;SDS011;37694;51.748;14.326;2023-06-22T04:17:07;0.50;;;0.50;;
51612;SDS011;37694;51.748;14.326;2023-06-22T04:19:32;0.88;;;0.50;;
51612;SDS011;37694;51.748;14.326;2023-06-22T04:21:58;0.50;;;0.50;;
51612;SDS011;37694;51.748;14.326;2023-06-22T04:24:23;0.50;;;0.50;;
51612;SDS011;37694;51.748;14.326;2023-06-22T04:26:49;0.50;;;0.50;;
51612;SDS011;37694;51.748;14.326;2023-06-22T04:29:18;0.70;;;0.70;;
51612;SDS011;37694;51.748;14.326;2023-06-22T04:31:44;0.43;;;0.43;;
51612;SDS011;37694;51.748;14.326;2023-06-22T04:34:09;0.40;;;0.40;;
51612;SDS011;37694;51.748;14.326;2023-06-22T04:36:35;0.80;;;0.80;;
51612;SDS011;37694;51.748;14.326;2023-06-22T04:39:06;0.40;;;0.40;;
51612;SDS011;37694;51.748;14.326;2023-06-22T04:41:39;5.63;;;0.50;;
51612;SDS011;37694;51.748;14.326;2023-06-22T04:46:35;0.52;;;0.52;;
51612;SDS011;37694;51.748;14.326;2023-06-22T04:49:03;0.60;;;0.60;;
51612;SDS011;37694;51.748;14.326;2023-06-22T04:51:36;0.70;;;0.70;;
51612;SDS011;37694;51.748;14.326;2023-06-22T04:54:06;0.50;;;0.50;;
51612;SDS011;37694;51.748;14.326;2023-06-22T04:56:33;7.57;;;0.50;;
51612;SDS011;37694;51.748;14.326;2023-06-22T04:58:59;0.35;;;0.35;;
51612;SDS011;37694;51.748;14.326;2023-06-22T05:01:25;0.70;;;0.70;;
51612;SDS011;37694;51.748;14.326;2023-06-22T05:03:51;0.40;;;0.40;;
51612;SDS011;37694;51.748;14.326;2023-06-22T05:06:27;0.50;;;0.50;;
51612;SDS011;37694;51.748;14.326;2023-06-22T05:08:53;2.72;;;0.63;;
51612;SDS011;37694;51.748;14.326;2023-06-22T05:11:31;0.50;;;0.50;;
51612;SDS011;37694;51.748;14.326;2023-06-22T05:13:57;0.50;;;0.50;;
51612;SDS011;37694;51.748;14.326;2023-06-22T05:16:23;0.60;;;0.50;;
51612;SDS011;37694;51.748;14.326;2023-06-22T05:18:50;0.50;;;0.50;;
51612;SDS011;37694;51.748;14.326;2023-06-22T05:21:18;0.65;;;0.65;;
51612;SDS011;37694;51.748;14.326;2023-06-22T05:23:48;0.73;;;0.73;;
51612;SDS011;37694;51.748;14.326;2023-06-22T05:26:14;0.75;;;0.75;;
51612;SDS011;37694;51.748;14.326;2023-06-22T05:28:39;2.40;;;1.23;;
51612;SDS011;37694;51.748;14.326;2023-06-22T05:31:05;1.80;;;0.90;;
51612;SDS011;37694;51.748;14.326;2023-06-22T05:33:31;8.15;;;1.60;;
51612;SDS011;37694;51.748;14.326;2023-06-22T05:35:56;28.38;;;3.75;;
51612;SDS011;37694;51.748;14.326;2023-06-22T05:38:22;16.58;;;3.75;;
51612;SDS011;37694;51.748;14.326;2023-06-22T05:40:48;7.20;;;3.15;;
51612;SDS011;37694;51.748;14.326;2023-06-22T05:43:14;7.20;;;2.72;;
51612;SDS011;37694;51.748;14.326;2023-06-22T05:45:40;8.05;;;3.10;;
51612;SDS011;37694;51.748;14.326;2023-06-22T05:48:06;11.23;;;2.72;;
51612;SDS011;37694;51.748;14.326;2023-06-22T05:50:31;4.97;;;2.50;;
51612;SDS011;37694;51.748;14.326;2023-06-22T05:52:57;7.13;;;3.25;;
51612;SDS011;37694;51.748;14.326;2023-06-22T05:55:23;10.35;;;3.50;;
51612;SDS011;37694;51.748;14.326;2023-06-22T05:57:48;8.07;;;2.85;;
51612;SDS011;37694;51.748;14.326;2023-06-22T06:00:14;9.10;;;2.33;;
51612;SDS011;37694;51.748;14.326;2023-06-22T06:02:40;7.50;;;2.60;;
51612;SDS011;37694;51.748;14.326;2023-06-22T06:05:09;9.18;;;3.90;;
51612;SDS011;37694;51.748;14.326;2023-06-22T06:07:36;10.43;;;5.35;;
51612;SDS011;37694;51.748;14.326;2023-06-22T06:10:02;15.80;;;4.35;;
51612;SDS011;37694;51.748;14.326;2023-06-22T06:12:29;9.45;;;3.70;;
51612;SDS011;37694;51.748;14.326;2023-06-22T06:14:55;10.35;;;3.97;;
51612;SDS011;37694;51.748;14.326;2023-06-22T06:17:21;15.70;;;5.38;;
51612;SDS011;37694;51.748;14.326;2023-06-22T06:19:47;12.85;;;4.55;;
51612;SDS011;37694;51.748;14.326;2023-06-22T06:22:13;18.15;;;4.60;;
51612;SDS011;37694;51.748;14.326;2023-06-22T06:24:38;20.38;;;5.10;;
51612;SDS011;37694;51.748;14.326;2023-06-22T06:27:04;17.80;;;4.82;;
51612;SDS011;37694;51.748;14.326;2023-06-22T06:29:30;22.45;;;4.40;;
51612;SDS011;37694;51.748;14.326;2023-06-22T06:31:56;24.80;;;5.20;;
51612;SDS011;37694;51.748;14.326;2023-06-22T06:34:22;35.13;;;4.97;;
51612;SDS011;37694;51.748;14.326;2023-06-22T06:36:48;26.50;;;5.22;;
51612;SDS011;37694;51.748;14.326;2023-06-22T06:39:13;22.38;;;6.22;;
51612;SDS011;37694;51.748;14.326;2023-06-22T06:41:41;18.85;;;6.07;;
51612;SDS011;37694;51.748;14.326;2023-06-22T06:44:06;19.83;;;7.50;;
51612;SDS011;37694;51.748;14.326;2023-06-22T06:46:32;23.27;;;6.05;;
51612;SDS011;37694;51.748;14.326;2023-06-22T06:48:58;21.60;;;6.00;;
51612;SDS011;37694;51.748;14.326;2023-06-22T06:51:23;16.70;;;5.68;;
51612;SDS011;37694;51.748;14.326;2023-06-22T06:53:49;23.13;;;6.53;;
51612;SDS011;37694;51.748;14.326;2023-06-22T06:56:15;10.60;;;5.82;;
51612;SDS011;37694;51.748;14.326;2023-06-22T06:58:41;31.63;;;5.60;;
51612;SDS011;37694;51.748;14.326;2023-06-22T07:01:10;17.92;;;5.55;;
51612;SDS011;37694;51.748;14.326;2023-06-22T07:03:37;14.52;;;5.10;;
51612;SDS011;37694;51.748;14.326;2023-06-22T07:06:03;14.55;;;5.65;;
51612;SDS011;37694;51.748;14.326;2023-06-22T07:08:29;15.18;;;5.55;;
51612;SDS011;37694;51.748;14.326;2023-06-22T07:10:54;9.70;;;5.22;;
51612;SDS011;37694;51.748;14.326;2023-06-22T07:13:20;16.13;;;5.60;;
51612;SDS011;37694;51.748;14.326;2023-06-22T07:15:46;16.02;;;5.28;;
51612;SDS011;37694;51.748;14.326;2023-06-22T07:18:11;13.25;;;5.50;;
51612;SDS011;37694;51.748;14.326;2023-06-22T07:20:37;10.38;;;4.68;;
51612;SDS011;37694;51.748;14.326;2023-06-22T07:23:04;10.27;;;4.93;;
51612;SDS011;37694;51.748;14.326;2023-06-22T07:25:30;20.52;;;5.68;;
51612;SDS011;37694;51.748;14.326;2023-06-22T07:27:57;12.05;;;5.53;;
51612;SDS011;37694;51.748;14.326;2023-06-22T07:30:27;12.40;;;4.72;;
51612;SDS011;37694;51.748;14.326;2023-06-22T07:32:54;16.85;;;6.10;;
51612;SDS011;37694;51.748;14.326;2023-06-22T07:35:19;5.70;;;4.53;;
51612;SDS011;37694;51.748;14.326;2023-06-22T07:37:45;14.63;;;5.00;;
51612;SDS011;37694;51.748;14.326;2023-06-22T07:40:11;8.55;;;4.00;;
51612;SDS011;37694;51.748;14.326;2023-06-22T07:42:37;7.35;;;3.45;;
51612;SDS011;37694;51.748;14.326;2023-06-22T07:45:03;5.15;;;3.40;;
51612;SDS011;37694;51.748;14.326;2023-06-22T07:47:29;5.47;;;2.90;;
51612;SDS011;37694;51.748;14.326;2023-06-22T07:49:58;8.75;;;2.80;;
51612;SDS011;37694;51.748;14.326;2023-06-22T07:52:26;4.57;;;2.72;;
51612;SDS011;37694;51.748;14.326;2023-06-22T07:54:52;3.72;;;2.67;;
51612;SDS011;37694;51.748;14.326;2023-06-22T07:57:18;3.30;;;2.50;;
51612;SDS011;37694;51.748;14.326;2023-06-22T07:59:44;6.45;;;2.42;;
51612;SDS011;37694;51.748;14.326;2023-06-22T08:02:10;4.13;;;2.25;;
51612;SDS011;37694;51.748;14.326;2023-06-22T08:04:36;1.90;;;1.70;;
51612;SDS011;37694;51.748;14.326;2023-06-22T08:07:02;5.75;;;2.10;;
51612;SDS011;37694;51.748;14.326;2023-06-22T08:09:29;2.72;;;1.58;;
51612;SDS011;37694;51.748;14.326;2023-06-22T08:11:56;1.95;;;1.75;;
51612;SDS011;37694;51.748;14.326;2023-06-22T08:14:22;2.85;;;2.10;;
51612;SDS011;37694;51.748;14.326;2023-06-22T08:16:51;1.88;;;1.70;;
51612;SDS011;37694;51.748;14.326;2023-06-22T08:19:17;1.75;;;1.63;;
51612;SDS011;37694;51.748;14.326;2023-06-22T08:21:43;2.25;;;1.50;;
51612;SDS011;37694;51.748;14.326;2023-06-22T08:24:09;1.40;;;1.30;;
51612;SDS011;37694;51.748;14.326;2023-06-22T08:26:34;1.35;;;1.20;;
51612;SDS011;37694;51.748;14.326;2023-06-22T08:29:03;2.05;;;1.20;;
51612;SDS011;37694;51.748;14.326;2023-06-22T08:31:28;1.45;;;1.35;;
51612;SDS011;37694;51.748;14.326;2023-06-22T08:33:55;0.80;;;0.80;;
51612;SDS011;37694;51.748;14.326;2023-06-22T08:36:21;2.78;;;0.77;;
51612;SDS011;37694;51.748;14.326;2023-06-22T08:38:46;0.73;;;0.73;;
51612;SDS011;37694;51.748;14.326;2023-06-22T08:41:16;1.63;;;0.70;;
51612;SDS011;37694;51.748;14.326;2023-06-22T08:43:42;0.60;;;0.60;;
51612;SDS011;37694;51.748;14.326;2023-06-22T08:46:09;0.60;;;0.60;;
51612;SDS011;37694;51.748;14.326;2023-06-22T08:48:35;0.40;;;0.40;;
51612;SDS011;37694;51.748;14.326;2023-06-22T08:51:01;0.50;;;0.50;;
51612;SDS011;37694;51.748;14.326;2023-06-22T08:53:28;0.50;;;0.50;;
51612;SDS011;37694;51.748;14.326;2023-06-22T08:55:54;0.50;;;0.50;;
51612;SDS011;37694;51.748;14.326;2023-06-22T08:58:19;0.30;;;0.30;;
51612;SDS011;37694;51.748;14.326;2023-06-22T09:00:46;0.30;;;0.30;;
51612;SDS011;37694;51.748;14.326;2023-06-22T09:03:12;0.22;;;0.22;;
51612;SDS011;37694;51.748;14.326;2023-06-22T09:05:38;0.30;;;0.30;;
51612;SDS011;37694;51.748;14.326;2023-06-22T09:08:04;0.30;;;0.30;;
51612;SDS011;37694;51.748;14.326;2023-06-22T09:10:30;0.28;;;0.28;;
51612;SDS011;37694;51.748;14.326;2023-06-22T09:12:56;0.30;;;0.30;;
51612;SDS011;37694;51.748;14.326;2023-06-22T09:15:22;0.30;;;0.30;;
51612;SDS011;37694;51.748;14.326;2023-06-22T09:17:48;0.20;;;0.20;;
51612;SDS011;37694;51.748;14.326;2023-06-22T09:20:14;0.30;;;0.30;;
51612;SDS011;37694;51.748;14.326;2023-06-22T09:22:40;0.20;;;0.20;;
51612;SDS011;37694;51.748;14.326;2023-06-22T09:25:06;0.22;;;0.22;;
51612;SDS011;37694;51.748;14.326;2023-06-22T09:27:32;0.40;;;0.40;;
51612;SDS011;37694;51.748;14.326;2023-06-22T09:29:58;0.20;;;0.20;;
51612;SDS011;37694;51.748;14.326;2023-06-22T09:32:24;0.20;;;0.20;;
51612;SDS011;37694;51.748;14.326;2023-06-22T09:34:50;0.40;;;0.40;;
51612;SDS011;37694;51.748;14.326;2023-06-22T09:37:16;0.40;;;0.40;;
51612;SDS011;37694;51.748;14.326;2023-06-22T09:39:42;0.22;;;0.22;;
51612;SDS011;37694;51.748;14.326;2023-06-22T09:42:08;0.35;;;0.35;;
51612;SDS011;37694;51.748;14.326;2023-06-22T09:44:33;0.40;;;0.40;;
51612;SDS011;37694;51.748;14.326;2023-06-22T09:46:59;0.35;;;0.35;;
51612;SDS011;37694;51.748;14.326;2023-06-22T09:49:25;0.40;;;0.40;;
51612;SDS011;37694;51.748;14.326;2023-06-22T09:51:51;0.30;;;0.30;;
51612;SDS011;37694;51.748;14.326;2023-06-22T09:54:17;0.40;;;0.40;;
51612;SDS011;37694;51.748;14.326;2023-06-22T09:56:43;0.40;;;0.40;;
51612;SDS011;37694;51.748;14.326;2023-06-22T09:59:09;0.30;;;0.30;;
51612;SDS011;37694;51.748;14.326;2023-06-22T10:01:35;0.40;;;0.40;;
51612;SDS011;37694;51.748;14.326;2023-06-22T10:04:01;0.20;;;0.20;;
51612;SDS011;37694;51.748;14.326;2023-06-22T10:06:27;0.40;;;0.40;;
51612;SDS011;37694;51.748;14.326;2023-06-22T10:08:53;0.40;;;0.40;;
51612;SDS011;37694;51.748;14.326;2023-06-22T10:11:19;0.40;;;0.40;;
51612;SDS011;37694;51.748;14.326;2023-06-22T10:13:45;0.43;;;0.43;;
51612;SDS011;37694;51.748;14.326;2023-06-22T10:16:10;0.60;;;0.60;;
51612;SDS011;37694;51.748;14.326;2023-06-22T10:18:36;0.45;;;0.45;;
51612;SDS011;37694;51.748;14.326;2023-06-22T10:21:01;0.60;;;0.60;;
51612;SDS011;37694;51.748;14.326;2023-06-22T10:23:27;0.28;;;0.28;;
51612;SDS011;37694;51.748;14.326;2023-06-22T10:25:53;0.30;;;0.30;;
51612;SDS011;37694;51.748;14.326;2023-06-22T10:28:18;0.40;;;0.40;;
51612;SDS011;37694;51.748;14.326;2023-06-22T10:30:44;0.40;;;0.40;;
51612;SDS011;37694;51.748;14.326;2023-06-22T10:33:10;0.45;;;0.45;;
51612;SDS011;37694;51.748;14.326;2023-06-22T10:35:37;0.40;;;0.40;;
51612;SDS011;37694;51.748;14.326;2023-06-22T10:38:03;0.47;;;0.47;;
51612;SDS011;37694;51.748;14.326;2023-06-22T10:40:29;0.40;;;0.40;;
51612;SDS011;37694;51.748;14.326;2023-06-22T10:42:55;0.50;;;0.50;;
51612;SDS011;37694;51.748;14.326;2023-06-22T10:45:21;0.43;;;0.43;;
51612;SDS011;37694;51.748;14.326;2023-06-22T10:47:46;0.30;;;0.30;;
51612;SDS011;37694;51.748;14.326;2023-06-22T10:50:12;0.30;;;0.30;;
51612;SDS011;37694;51.748;14.326;2023-06-22T10:52:38;0.32;;;0.32;;
51612;SDS011;37694;51.748;14.326;2023-06-22T10:55:04;0.38;;;0.38;;
51612;SDS011;37694;51.748;14.326;2023-06-22T10:57:30;0.30;;;0.30;;
51612;SDS011;37694;51.748;14.326;2023-06-22T10:59:56;0.30;;;0.30;;
51612;SDS011;37694;51.748;14.326;2023-06-22T11:02:22;0.30;;;0.30;;
51612;SDS011;37694;51.748;14.326;2023-06-22T11:04:49;0.57;;;0.40;;
51612;SDS011;37694;51.748;14.326;2023-06-22T11:07:15;0.40;;;0.40;;
51612;SDS011;37694;51.748;14.326;2023-06-22T11:09:42;0.43;;;0.43;;
51612;SDS011;37694;51.748;14.326;2023-06-22T11:12:08;0.40;;;0.40;;
51612;SDS011;37694;51.748;14.326;2023-06-22T11:14:34;1.75;;;0.40;;
51612;SDS011;37694;51.748;14.326;2023-06-22T11:17:00;2.10;;;0.40;;
51612;SDS011;37694;51.748;14.326;2023-06-22T11:19:26;0.40;;;0.40;;
51612;SDS011;37694;51.748;14.326;2023-06-22T11:21:51;0.40;;;0.40;;
51612;SDS011;37694;51.748;14.326;2023-06-22T11:24:17;0.30;;;0.30;;
51612;SDS011;37694;51.748;14.326;2023-06-22T11:26:43;0.43;;;0.43;;
51612;SDS011;37694;51.748;14.326;2023-06-22T11:29:09;0.30;;;0.30;;
51612;SDS011;37694;51.748;14.326;2023-06-22T11:31:35;0.32;;;0.32;;
51612;SDS011;37694;51.748;14.326;2023-06-22T11:34:01;0.30;;;0.30;;
51612;SDS011;37694;51.748;14.326;2023-06-22T11:36:27;0.20;;;0.20;;
51612;SDS011;37694;51.748;14.326;2023-06-22T11:38:54;0.22;;;0.22;;
51612;SDS011;37694;51.748;14.326;2023-06-22T11:41:20;0.40;;;0.40;;
51612;SDS011;37694;51.748;14.326;2023-06-22T11:43:46;0.40;;;0.40;;
51612;SDS011;37694;51.748;14.326;2023-06-22T11:46:11;0.40;;;0.40;;
51612;SDS011;37694;51.748;14.326;2023-06-22T11:48:37;0.40;;;0.40;;
51612;SDS011;37694;51.748;14.326;2023-06-22T11:51:03;0.32;;;0.32;;
51612;SDS011;37694;51.748;14.326;2023-06-22T11:53:29;0.40;;;0.40;;
51612;SDS011;37694;51.748;14.326;2023-06-22T11:55:55;0.40;;;0.40;;
51612;SDS011;37694;51.748;14.326;2023-06-22T11:58:21;0.30;;;0.30;;
51612;SDS011;37694;51.748;14.326;2023-06-22T12:00:47;0.40;;;0.40;;
51612;SDS011;37694;51.748;14.326;2023-06-22T12:03:13;0.50;;;0.50;;
51612;SDS011;37694;51.748;14.326;2023-06-22T12:05:39;0.43;;;0.43;;
51612;SDS011;37694;51.748;14.326;2023-06-22T12:08:06;0.35;;;0.35;;
51612;SDS011;37694;51.748;14.326;2023-06-22T12:10:31;0.30;;;0.30;;
51612;SDS011;37694;51.748;14.326;2023-06-22T12:12:57;0.55;;;0.55;;
51612;SDS011;37694;51.748;14.326;2023-06-22T12:15:25;0.40;;;0.40;;
51612;SDS011;37694;51.748;14.326;2023-06-22T12:17:50;0.50;;;0.50;;
51612;SDS011;37694;51.748;14.326;2023-06-22T12:20:16;0.40;;;0.40;;
51612;SDS011;37694;51.748;14.326;2023-06-22T12:22:42;0.40;;;0.40;;
51612;SDS011;37694;51.748;14.326;2023-06-22T12:25:08;0.40;;;0.40;;
51612;SDS011;37694;51.748;14.326;2023-06-22T12:27:34;1.55;;;0.35;;
51612;SDS011;37694;51.748;14.326;2023-06-22T12:30:00;0.35;;;0.35;;
51612;SDS011;37694;51.748;14.326;2023-06-22T12:32:27;0.30;;;0.30;;
51612;SDS011;37694;51.748;14.326;2023-06-22T12:34:53;0.70;;;0.43;;
51612;SDS011;37694;51.748;14.326;2023-06-22T12:37:18;0.40;;;0.40;;
51612;SDS011;37694;51.748;14.326;2023-06-22T12:39:44;0.40;;;0.40;;
51612;SDS011;37694;51.748;14.326;2023-06-22T12:42:10;0.30;;;0.30;;
51612;SDS011;37694;51.748;14.326;2023-06-22T12:44:39;0.40;;;0.40;;
51612;SDS011;37694;51.748;14.326;2023-06-22T12:47:06;0.40;;;0.40;;
51612;SDS011;37694;51.748;14.326;2023-06-22T12:49:31;0.60;;;0.60;;
51612;SDS011;37694;51.748;14.326;2023-06-22T12:51:57;0.50;;;0.50;;
51612;SDS011;37694;51.748;14.326;2023-06-22T12:54:23;0.32;;;0.32;;
51612;SDS011;37694;51.748;14.326;2023-06-22T12:56:49;0.40;;;0.40;;
51612;SDS011;37694;51.748;14.326;2023-06-22T12:59:15;0.30;;;0.30;;
51612;SDS011;37694;51.748;14.326;2023-06-22T13:01:42;0.38;;;0.38;;
51612;SDS011;37694;51.748;14.326;2023-06-22T13:04:10;0.47;;;0.47;;
51612;SDS011;37694;51.748;14.326;2023-06-22T13:06:39;0.57;;;0.57;;
51612;SDS011;37694;51.748;14.326;2023-06-22T13:09:05;0.43;;;0.43;;
51612;SDS011;37694;51.748;14.326;2023-06-22T13:11:31;0.45;;;0.45;;
51612;SDS011;37694;51.748;14.326;2023-06-22T13:13:57;0.55;;;0.55;;
51612;SDS011;37694;51.748;14.326;2023-06-22T13:16:22;0.70;;;0.70;;
51612;SDS011;37694;51.748;14.326;2023-06-22T13:18:48;0.60;;;0.60;;
51612;SDS011;37694;51.748;14.326;2023-06-22T13:21:14;0.70;;;0.70;;
51612;SDS011;37694;51.748;14.326;2023-06-22T13:23:40;0.80;;;0.80;;
51612;SDS011;37694;51.748;14.326;2023-06-22T13:26:05;0.63;;;0.63;;
51612;SDS011;37694;51.748;14.326;2023-06-22T13:28:32;0.70;;;0.70;;
51612;SDS011;37694;51.748;14.326;2023-06-22T13:30:58;0.95;;;0.95;;
51612;SDS011;37694;51.748;14.326;2023-06-22T13:33:23;0.90;;;0.90;;
51612;SDS011;37694;51.748;14.326;2023-06-22T13:35:49;0.70;;;0.70;;
51612;SDS011;37694;51.748;14.326;2023-06-22T13:38:15;0.88;;;0.88;;
51612;SDS011;37694;51.748;14.326;2023-06-22T13:40:40;1.02;;;1.00;;
51612;SDS011;37694;51.748;14.326;2023-06-22T13:43:06;0.85;;;0.85;;
51612;SDS011;37694;51.748;14.326;2023-06-22T13:45:32;0.82;;;0.82;;
51612;SDS011;37694;51.748;14.326;2023-06-22T13:47:58;1.02;;;1.02;;
51612;SDS011;37694;51.748;14.326;2023-06-22T13:50:24;0.88;;;0.88;;
51612;SDS011;37694;51.748;14.326;2023-06-22T13:52:49;1.00;;;1.00;;
51612;SDS011;37694;51.748;14.326;2023-06-22T13:55:15;0.80;;;0.80;;
51612;SDS011;37694;51.748;14.326;2023-06-22T13:57:41;1.05;;;1.00;;
51612;SDS011;37694;51.748;14.326;2023-06-22T14:00:07;1.00;;;1.00;;
51612;SDS011;37694;51.748;14.326;2023-06-22T14:02:34;1.10;;;1.00;;
51612;SDS011;37694;51.748;14.326;2023-06-22T14:05:00;0.90;;;0.90;;
51612;SDS011;37694;51.748;14.326;2023-06-22T14:07:27;1.10;;;1.10;;
51612;SDS011;37694;51.748;14.326;2023-06-22T14:09:53;1.20;;;1.20;;
51612;SDS011;37694;51.748;14.326;2023-06-22T14:12:18;1.20;;;1.20;;
51612;SDS011;37694;51.748;14.326;2023-06-22T14:14:44;1.42;;;1.33;;
51612;SDS011;37694;51.748;14.326;2023-06-22T14:17:10;1.17;;;1.17;;
51612;SDS011;37694;51.748;14.326;2023-06-22T14:19:35;1.13;;;1.13;;
51612;SDS011;37694;51.748;14.326;2023-06-22T14:22:01;1.17;;;1.08;;
51612;SDS011;37694;51.748;14.326;2023-06-22T14:24:27;1.27;;;1.27;;
51612;SDS011;37694;51.748;14.326;2023-06-22T14:26:54;1.38;;;1.35;;
51612;SDS011;37694;51.748;14.326;2023-06-22T14:29:20;1.30;;;1.30;;
51612;SDS011;37694;51.748;14.326;2023-06-22T14:31:46;1.38;;;1.27;;
51612;SDS011;37694;51.748;14.326;2023-06-22T14:34:13;1.10;;;1.10;;
51612;SDS011;37694;51.748;14.326;2023-06-22T14:36:39;1.30;;;1.20;;